Time;durP1;ratioP1;P1;durP2;ratioP2;P2;SDS_P1;SDS_P2;PMS_P1;PMS_P2;Temp;Humidity;BMP_temperature;BMP_pressure;BME280_temperature;BME280_humidity;BME280_pressure;Samples;Min_cycle;Max_cycle;Signal;HPM_P1;HPM_P2
2023/06/05 00:01:55;;;;;;;11.90;4.65;;;;;;;;;;5013431;28;20500;-64
2023/06/05 00:04:25;;;;;;;10.32;4.32;;;;;;;;;;5029970;28;20049;-63
2023/06/05 00:06:57;;;;;;;11.50;4.25;;;;;;;;;;5030020;28;20076;-63
2023/06/05 00:09:27;;;;;;;11.05;4.50;;;;;;;;;;5050136;28;20057;-63
2023/06/05 00:11:57;;;;;;;9.63;4.00;;;;;;;;;;5036752;28;20063;-63
2023/06/05 00:14:27;;;;;;;11.15;4.43;;;;;;;;;;5053212;28;20048;-63
2023/06/05 00:16:57;;;;;;;13.63;4.45;;;;;;;;;;5071816;28;20033;-63
2023/06/05 00:19:29;;;;;;;9.77;4.07;;;;;;;;;;5071839;28;20048;-63
2023/06/05 00:21:59;;;;;;;11.30;4.40;;;;;;;;;;5021659;28;20053;-63
2023/06/05 00:24:30;;;;;;;14.07;4.55;;;;;;;;;;5071972;28;20052;-63
2023/06/05 00:27:00;;;;;;;10.30;4.15;;;;;;;;;;5071505;28;20047;-63
2023/06/05 00:29:30;;;;;;;9.10;3.75;;;;;;;;;;5036240;28;20496;-63
2023/06/05 00:32:00;;;;;;;17.25;4.15;;;;;;;;;;5019961;28;20055;-63
2023/06/05 00:34:30;;;;;;;11.70;4.20;;;;;;;;;;5071419;28;20036;-63
2023/06/05 00:37:00;;;;;;;12.45;4.53;;;;;;;;;;5071526;28;20047;-63
2023/06/05 00:39:31;;;;;;;12.30;4.43;;;;;;;;;;5071355;28;20052;-63
2023/06/05 00:42:01;;;;;;;12.68;5.15;;;;;;;;;;5037116;28;20052;-63
2023/06/05 00:44:32;;;;;;;11.15;4.30;;;;;;;;;;5037112;28;20115;-63
2023/06/05 00:47:03;;;;;;;9.38;4.43;;;;;;;;;;5071616;28;20091;-63
2023/06/05 00:49:34;;;;;;;12.88;4.80;;;;;;;;;;5071151;28;20048;-63
2023/06/05 00:52:04;;;;;;;12.70;4.40;;;;;;;;;;5068903;28;20053;-64
2023/06/05 00:54:35;;;;;;;13.13;5.45;;;;;;;;;;5071421;28;20044;-63
2023/06/05 00:57:07;;;;;;;12.77;5.30;;;;;;;;;;5048748;28;20080;-63
2023/06/05 00:59:37;;;;;;;16.17;5.05;;;;;;;;;;5048993;28;20069;-63
2023/06/05 01:02:08;;;;;;;10.77;4.65;;;;;;;;;;5048750;28;20056;-63
2023/06/05 01:04:40;;;;;;;12.88;4.55;;;;;;;;;;4989243;28;20168;-63
2023/06/05 01:07:11;;;;;;;;;;;;;;;;;;4990045;28;20553;-63
2023/06/05 01:09:42;;;;;;;13.50;4.38;;;;;;;;;;4957311;28;19922;-63
2023/06/05 01:12:17;;;;;;;14.57;4.30;;;;;;;;;;4957274;28;20053;-64
2023/06/05 01:14:51;;;;;;;13.40;4.60;;;;;;;;;;4957056;28;20061;-63
2023/06/05 01:17:24;;;;;;;17.05;4.50;;;;;;;;;;4989423;28;20418;-63
2023/06/05 01:19:58;;;;;;;10.73;5.50;;;;;;;;;;4989546;28;20069;-63
2023/06/05 01:22:28;;;;;;;10.68;4.65;;;;;;;;;;4973397;28;20069;-63
2023/06/05 01:24:59;;;;;;;11.00;4.72;;;;;;;;;;4989597;28;20413;-63
2023/06/05 01:27:38;;;;;;;11.85;4.80;;;;;;;;;;4941256;28;20063;-63
2023/06/05 01:30:30;;;;;;;12.13;5.07;;;;;;;;;;4990992;28;20441;-64
2023/06/05 01:33:20;;;;;;;13.30;4.97;;;;;;;;;;4941716;28;20624;-63
2023/06/05 01:35:53;;;;;;;10.93;4.93;;;;;;;;;;4941581;28;20069;-62
2023/06/05 01:38:24;;;;;;;11.75;4.80;;;;;;;;;;4954400;29;20451;-62
2023/06/05 01:40:55;;;;;;;12.65;5.22;;;;;;;;;;4973616;28;20506;-63
2023/06/05 01:43:25;;;;;;;11.70;5.15;;;;;;;;;;4991890;28;20061;-63
2023/06/05 01:45:58;;;;;;;10.98;5.22;;;;;;;;;;4993104;28;20434;-64
2023/06/05 01:48:30;;;;;;;18.95;4.95;;;;;;;;;;4993109;28;20061;-63
2023/06/05 01:51:01;;;;;;;11.80;4.80;;;;;;;;;;4976020;28;20403;-63
2023/06/05 01:53:31;;;;;;;12.65;5.05;;;;;;;;;;4976944;28;20055;-63
2023/06/05 01:56:04;;;;;;;13.48;5.18;;;;;;;;;;4938387;29;20064;-64
2023/06/05 01:58:35;;;;;;;14.93;5.43;;;;;;;;;;4937836;29;20058;-63
2023/06/05 02:01:05;;;;;;;14.70;5.18;;;;;;;;;;4953924;29;20526;-63
2023/06/05 02:03:36;;;;;;;15.68;5.85;;;;;;;;;;4921436;29;20058;-63
2023/06/05 02:06:06;;;;;;;15.77;6.00;;;;;;;;;;4931116;29;20059;-63
2023/06/05 02:08:37;;;;;;;13.95;5.95;;;;;;;;;;4915636;29;20223;-63
2023/06/05 02:11:11;;;;;;;23.40;6.35;;;;;;;;;;4925155;29;20661;-63
2023/06/05 02:13:41;;;;;;;14.15;5.97;;;;;;;;;;4902680;29;20078;-63
2023/06/05 02:16:13;;;;;;;15.45;6.40;;;;;;;;;;4904872;29;20048;-63
2023/06/05 02:18:48;;;;;;;16.20;5.70;;;;;;;;;;4896480;29;20052;-63
2023/06/05 02:21:19;;;;;;;17.55;6.75;;;;;;;;;;4876099;29;20048;-63
2023/06/05 02:23:51;;;;;;;16.23;6.15;;;;;;;;;;4880568;29;20428;-63
2023/06/05 02:26:21;;;;;;;13.90;5.70;;;;;;;;;;4864823;29;20765;-63
2023/06/05 02:28:55;;;;;;;14.60;5.72;;;;;;;;;;4912086;29;20452;-63
2023/06/05 02:31:28;;;;;;;11.80;5.45;;;;;;;;;;4896250;29;20052;-63
2023/06/05 02:33:59;;;;;;;17.23;5.93;;;;;;;;;;4903808;29;20056;-63
2023/06/05 02:36:32;;;;;;;15.05;5.55;;;;;;;;;;4907475;29;20052;-63
2023/06/05 02:39:07;;;;;;;14.07;5.72;;;;;;;;;;4897271;29;20052;-65
2023/06/05 02:41:37;;;;;;;15.25;6.28;;;;;;;;;;4915024;29;20052;-63
2023/06/05 02:44:08;;;;;;;13.45;5.15;;;;;;;;;;4918344;29;20067;-63
2023/06/05 02:46:38;;;;;;;14.63;6.00;;;;;;;;;;4933872;29;20051;-63
2023/06/05 02:49:08;;;;;;;15.00;6.22;;;;;;;;;;4915024;29;20056;-63
2023/06/05 02:51:39;;;;;;;16.17;6.22;;;;;;;;;;4926459;29;20467;-63
2023/06/05 02:54:09;;;;;;;14.82;6.25;;;;;;;;;;4905941;29;20053;-63
2023/06/05 02:56:44;;;;;;;18.05;6.13;;;;;;;;;;4876675;29;20428;-63
2023/06/05 02:59:15;;;;;;;13.65;6.80;;;;;;;;;;4933439;29;20524;-63
2023/06/05 03:01:49;;;;;;;14.63;6.05;;;;;;;;;;4891408;29;20390;-62
2023/06/05 03:04:23;;;;;;;13.38;5.57;;;;;;;;;;4914895;29;20060;-64
2023/06/05 03:06:57;;;;;;;14.45;5.85;;;;;;;;;;4952691;29;20051;-63
2023/06/05 03:09:27;;;;;;;10.90;5.30;;;;;;;;;;4952863;29;20117;-65
2023/06/05 03:11:58;;;;;;;15.25;5.20;;;;;;;;;;4909629;29;20579;-63
2023/06/05 03:14:33;;;;;;;12.35;4.95;;;;;;;;;;4910373;29;20056;-63
2023/06/05 03:17:03;;;;;;;15.38;4.72;;;;;;;;;;4898195;29;20048;-63
2023/06/05 03:19:33;;;;;;;12.70;5.20;;;;;;;;;;4926165;29;20068;-63
2023/06/05 03:22:05;;;;;;;10.45;4.65;;;;;;;;;;4914298;29;20055;-63
2023/06/05 03:24:37;;;;;;;13.10;4.95;;;;;;;;;;4883355;29;20537;-63
2023/06/05 03:27:09;;;;;;;;;;;;;;;;;;4922926;29;20052;-63
2023/06/05 03:29:40;;;;;;;12.93;4.53;;;;;;;;;;4924175;29;19933;-63
2023/06/05 03:32:11;;;;;;;15.77;5.65;;;;;;;;;;4939802;29;20056;-63
2023/06/05 03:34:48;;;;;;;18.38;6.63;;;;;;;;;;4894622;29;20072;-63
2023/06/05 03:37:20;;;;;;;13.43;5.68;;;;;;;;;;4864383;29;20419;-63
2023/06/05 03:39:51;;;;;;;11.60;5.68;;;;;;;;;;4857732;29;20049;-63
2023/06/05 03:42:21;;;;;;;11.35;5.63;;;;;;;;;;4857919;29;20066;-63
2023/06/05 03:44:52;;;;;;;11.70;5.60;;;;;;;;;;4828347;29;20054;-63
2023/06/05 03:47:24;;;;;;;13.60;5.32;;;;;;;;;;4857795;29;20073;-63
2023/06/05 03:49:55;;;;;;;14.45;5.47;;;;;;;;;;4864966;29;20049;-63
2023/06/05 03:52:26;;;;;;;11.40;5.63;;;;;;;;;;4842209;29;20045;-63
2023/06/05 03:54:57;;;;;;;11.70;5.45;;;;;;;;;;4857715;29;20061;-64
2023/06/05 03:57:27;;;;;;;12.02;5.07;;;;;;;;;;4857458;29;20068;-64
2023/06/05 03:59:57;;;;;;;12.77;5.20;;;;;;;;;;4817960;29;20082;-63
2023/06/05 04:02:28;;;;;;;11.57;5.07;;;;;;;;;;4828722;29;20105;-64
2023/06/05 04:04:58;;;;;;;11.25;5.10;;;;;;;;;;4820996;29;20062;-63
2023/06/05 04:07:29;;;;;;;11.45;4.80;;;;;;;;;;4812628;29;20055;-63
2023/06/05 04:10:03;;;;;;;12.57;5.85;;;;;;;;;;4857132;29;20135;-63
2023/06/05 04:12:33;;;;;;;14.50;5.50;;;;;;;;;;4845427;29;20050;-63
2023/06/05 04:15:04;;;;;;;15.60;5.43;;;;;;;;;;4854212;29;20053;-65
2023/06/05 04:17:37;;;;;;;13.23;5.68;;;;;;;;;;4875511;29;20560;-63
2023/06/05 04:20:10;;;;;;;15.50;6.07;;;;;;;;;;4852760;29;20408;-63
2023/06/05 04:22:44;;;;;;;11.15;5.22;;;;;;;;;;4881980;29;20211;-63
2023/06/05 04:25:16;;;;;;;11.93;4.82;;;;;;;;;;4854454;29;20065;-63
2023/06/05 04:27:51;;;;;;;13.63;5.20;;;;;;;;;;4846435;29;20058;-64
2023/06/05 04:30:25;;;;;;;11.10;5.15;;;;;;;;;;4824063;29;20077;-63
2023/06/05 04:32:55;;;;;;;14.98;6.00;;;;;;;;;;4856736;29;20053;-64
2023/06/05 04:35:27;;;;;;;10.57;5.30;;;;;;;;;;4894026;29;20064;-63
2023/06/05 04:37:57;;;;;;;11.07;5.13;;;;;;;;;;4882818;29;20064;-63
2023/06/05 04:40:28;;;;;;;12.45;5.80;;;;;;;;;;4868327;29;20057;-63
2023/06/05 04:42:59;;;;;;;14.18;5.43;;;;;;;;;;4849843;29;20050;-64
2023/06/05 04:45:30;;;;;;;12.55;5.57;;;;;;;;;;4797269;29;20063;-64
2023/06/05 04:48:00;;;;;;;12.77;5.32;;;;;;;;;;4820231;29;20050;-64
2023/06/05 04:50:30;;;;;;;14.38;6.38;;;;;;;;;;4830960;29;20050;-63
2023/06/05 04:53:12;;;;;;;12.93;6.20;;;;;;;;;;4844091;29;20050;-63
2023/06/05 04:55:45;;;;;;;15.40;6.07;;;;;;;;;;4850533;29;20428;-63
2023/06/05 04:58:19;;;;;;;11.07;5.45;;;;;;;;;;4808835;29;20047;-63
2023/06/05 05:00:50;;;;;;;13.07;5.53;;;;;;;;;;4834575;29;20054;-63
2023/06/05 05:03:22;;;;;;;13.70;5.75;;;;;;;;;;4837867;29;20070;-63
2023/06/05 05:05:52;;;;;;;10.90;5.60;;;;;;;;;;4840801;29;20058;-63
2023/06/05 05:08:22;;;;;;;11.88;5.30;;;;;;;;;;4853122;29;20195;-62
2023/06/05 05:10:54;;;;;;;13.80;6.30;;;;;;;;;;4856419;29;20085;-63
2023/06/05 05:13:25;;;;;;;12.88;5.25;;;;;;;;;;4898288;29;20052;-63
2023/06/05 05:15:55;;;;;;;14.10;5.88;;;;;;;;;;4871710;29;20060;-62
2023/06/05 05:18:28;;;;;;;13.38;5.25;;;;;;;;;;4867482;29;20212;-63
2023/06/05 05:20:58;;;;;;;14.43;6.05;;;;;;;;;;4826871;29;20091;-62
2023/06/05 05:23:28;;;;;;;11.63;5.57;;;;;;;;;;4864851;29;20058;-63
2023/06/05 05:25:59;;;;;;;12.45;5.45;;;;;;;;;;4856311;29;20414;-63
2023/06/05 05:28:29;;;;;;;13.95;5.57;;;;;;;;;;4867625;29;20053;-63
2023/06/05 05:31:00;;;;;;;13.63;5.57;;;;;;;;;;4855869;29;20050;-63
2023/06/05 05:33:32;;;;;;;11.63;5.35;;;;;;;;;;4862708;29;20060;-63
2023/06/05 05:36:04;;;;;;;11.20;5.55;;;;;;;;;;4864890;29;20052;-62
2023/06/05 05:38:35;;;;;;;13.70;5.47;;;;;;;;;;4856122;29;20057;-64
2023/06/05 05:41:05;;;;;;;14.50;6.50;;;;;;;;;;4868242;29;20052;-62
2023/06/05 05:43:35;;;;;;;13.25;5.80;;;;;;;;;;4909041;29;20064;-63
2023/06/05 05:46:05;;;;;;;14.18;6.22;;;;;;;;;;4887406;29;20426;-62
2023/06/05 05:48:36;;;;;;;11.65;5.82;;;;;;;;;;4912449;29;20060;-63
2023/06/05 05:51:07;;;;;;;11.10;5.13;;;;;;;;;;4902853;29;20057;-63
2023/06/05 05:53:38;;;;;;;14.32;5.70;;;;;;;;;;4886913;29;20452;-62
2023/06/05 05:56:08;;;;;;;11.40;5.72;;;;;;;;;;4902844;29;20067;-63
2023/06/05 05:58:39;;;;;;;16.60;6.57;;;;;;;;;;4912430;29;20406;-63
2023/06/05 06:01:11;;;;;;;13.32;5.80;;;;;;;;;;4912047;29;20064;-63
2023/06/05 06:03:42;;;;;;;12.02;5.35;;;;;;;;;;4932104;29;20059;-63
2023/06/05 06:06:13;;;;;;;10.55;5.65;;;;;;;;;;4949985;29;20063;-63
2023/06/05 06:08:43;;;;;;;14.30;5.55;;;;;;;;;;4950185;29;20063;-63
2023/06/05 06:11:13;;;;;;;11.93;5.60;;;;;;;;;;4960283;28;20058;-62
2023/06/05 06:13:44;;;;;;;18.60;6.10;;;;;;;;;;4980128;28;20085;-63
2023/06/05 06:16:15;;;;;;;12.98;5.20;;;;;;;;;;4997409;28;20409;-63
2023/06/05 06:18:46;;;;;;;12.90;6.10;;;;;;;;;;5053452;28;20048;-63
2023/06/05 06:21:17;;;;;;;13.05;5.55;;;;;;;;;;5074148;28;20044;-62
2023/06/05 06:23:47;;;;;;;12.63;5.22;;;;;;;;;;5039569;28;20053;-64
2023/06/05 06:26:18;;;;;;;11.80;6.07;;;;;;;;;;5074205;28;20052;-63
2023/06/05 06:28:48;;;;;;;11.27;5.90;;;;;;;;;;5039430;28;20515;-63
2023/06/05 06:31:19;;;;;;;16.50;5.78;;;;;;;;;;5073905;28;20392;-62
2023/06/05 06:33:49;;;;;;;11.45;5.90;;;;;;;;;;5073882;28;20066;-63
2023/06/05 06:36:20;;;;;;;11.40;5.97;;;;;;;;;;5073816;28;20047;-63
2023/06/05 06:38:50;;;;;;;10.52;5.18;;;;;;;;;;5073627;28;20060;-62
2023/06/05 06:41:21;;;;;;;11.95;5.93;;;;;;;;;;4999071;28;20045;-62
2023/06/05 06:43:52;;;;;;;11.45;5.22;;;;;;;;;;4982750;28;20052;-64
2023/06/05 06:46:22;;;;;;;14.93;5.90;;;;;;;;;;4998636;28;20516;-62
2023/06/05 06:48:52;;;;;;;12.98;5.22;;;;;;;;;;4982413;28;20053;-63
2023/06/05 06:51:23;;;;;;;10.60;5.53;;;;;;;;;;4998181;28;20406;-63
2023/06/05 06:53:53;;;;;;;16.17;5.88;;;;;;;;;;5031268;28;20061;-63
2023/06/05 06:56:25;;;;;;;12.57;5.50;;;;;;;;;;5031250;28;20048;-64
2023/06/05 06:58:56;;;;;;;14.55;6.00;;;;;;;;;;5031366;28;20064;-62
2023/06/05 07:01:26;;;;;;;10.55;4.93;;;;;;;;;;5031391;28;20045;-65
2023/06/05 07:03:57;;;;;;;13.55;5.25;;;;;;;;;;4998459;28;20453;-63
2023/06/05 07:06:27;;;;;;;11.82;5.47;;;;;;;;;;4998239;28;20057;-63
2023/06/05 07:08:57;;;;;;;11.93;5.20;;;;;;;;;;4981955;28;20049;-63
2023/06/05 07:11:27;;;;;;;12.65;5.72;;;;;;;;;;4998043;28;20516;-63
2023/06/05 07:13:57;;;;;;;13.52;5.43;;;;;;;;;;5014533;28;20053;-63
2023/06/05 07:16:27;;;;;;;13.07;6.35;;;;;;;;;;5030973;28;20049;-62
2023/06/05 07:18:58;;;;;;;12.98;6.10;;;;;;;;;;5051694;28;20055;-63
2023/06/05 07:21:28;;;;;;;15.85;6.65;;;;;;;;;;5054081;28;20404;-63
2023/06/05 07:23:58;;;;;;;13.85;6.25;;;;;;;;;;5021596;28;20071;-63
2023/06/05 07:26:28;;;;;;;14.60;7.95;;;;;;;;;;5073038;28;20396;-63
2023/06/05 07:28:58;;;;;;;12.82;5.90;;;;;;;;;;5037327;28;20045;-63
2023/06/05 07:31:30;;;;;;;14.75;6.05;;;;;;;;;;5072776;28;20040;-63
2023/06/05 07:34:00;;;;;;;13.05;6.40;;;;;;;;;;5072908;28;20052;-64
2023/06/05 07:36:31;;;;;;;16.55;6.32;;;;;;;;;;5050041;28;20057;-63
2023/06/05 07:39:01;;;;;;;17.00;7.10;;;;;;;;;;5050377;28;20075;-63
2023/06/05 07:41:31;;;;;;;13.23;6.50;;;;;;;;;;5017247;28;20048;-64
2023/06/05 07:44:02;;;;;;;13.70;6.35;;;;;;;;;;5034193;28;20413;-62
2023/06/05 07:46:34;;;;;;;12.20;5.80;;;;;;;;;;5050061;28;20056;-63
2023/06/05 07:49:05;;;;;;;13.05;6.70;;;;;;;;;;5033924;28;20053;-62
2023/06/05 07:51:37;;;;;;;13.65;6.38;;;;;;;;;;4968907;28;20421;-64
2023/06/05 07:54:09;;;;;;;12.40;6.50;;;;;;;;;;5050187;28;20056;-62
2023/06/05 07:56:40;;;;;;;15.43;7.05;;;;;;;;;;5050153;28;20045;-62
2023/06/05 07:59:14;;;;;;;13.43;5.78;;;;;;;;;;5033354;28;20520;-63
2023/06/05 08:01:45;;;;;;;11.70;5.93;;;;;;;;;;5018818;28;20053;-63
2023/06/05 08:04:15;;;;;;;14.35;6.53;;;;;;;;;;5000902;28;20492;-63
2023/06/05 08:06:46;;;;;;;14.38;7.20;;;;;;;;;;5016691;28;20082;-63
2023/06/05 08:09:17;;;;;;;10.63;5.88;;;;;;;;;;5033675;28;20049;-63
2023/06/05 08:11:48;;;;;;;11.02;5.55;;;;;;;;;;5049762;28;20057;-63
2023/06/05 08:14:18;;;;;;;14.48;6.80;;;;;;;;;;5036438;28;20040;-62
2023/06/05 08:16:48;;;;;;;12.90;5.97;;;;;;;;;;5053688;28;20513;-65
2023/06/05 08:19:20;;;;;;;16.10;6.60;;;;;;;;;;5020370;28;20044;-65
2023/06/05 08:21:56;;;;;;;17.65;6.43;;;;;;;;;;5036921;28;20044;-63
2023/06/05 08:24:28;;;;;;;20.67;7.13;;;;;;;;;;5072317;28;20052;-62
2023/06/05 08:27:00;;;;;;;14.13;6.57;;;;;;;;;;5038146;28;20049;-63
2023/06/05 08:29:30;;;;;;;14.55;5.93;;;;;;;;;;5072011;28;20040;-63
2023/06/05 08:32:00;;;;;;;12.48;6.05;;;;;;;;;;5037210;28;20504;-63
2023/06/05 08:34:31;;;;;;;15.55;6.53;;;;;;;;;;5071569;28;20492;-62
2023/06/05 08:37:02;;;;;;;18.05;8.77;;;;;;;;;;5071810;28;20492;-63
2023/06/05 08:39:33;;;;;;;21.52;7.72;;;;;;;;;;5053291;28;20056;-63
2023/06/05 08:42:05;;;;;;;16.02;7.40;;;;;;;;;;5036521;28;20504;-65
2023/06/05 08:44:36;;;;;;;23.35;7.90;;;;;;;;;;5053213;28;20053;-63
2023/06/05 08:47:12;;;;;;;24.70;9.18;;;;;;;;;;5036406;28;20060;-63
2023/06/05 08:49:42;;;;;;;26.67;8.27;;;;;;;;;;5020563;28;20420;-63
2023/06/05 08:52:14;;;;;;;26.02;8.45;;;;;;;;;;5036675;28;20079;-63
2023/06/05 08:54:45;;;;;;;31.67;8.18;;;;;;;;;;5037116;28;20056;-63
2023/06/05 08:57:15;;;;;;;19.33;7.88;;;;;;;;;;5071573;28;20052;-63
2023/06/05 08:59:46;;;;;;;23.02;7.88;;;;;;;;;;5052686;28;20059;-63
2023/06/05 09:02:16;;;;;;;25.60;8.43;;;;;;;;;;5019578;28;20056;-63
2023/06/05 09:04:46;;;;;;;23.90;8.88;;;;;;;;;;5071482;28;20044;-63
2023/06/05 09:07:17;;;;;;;26.15;9.52;;;;;;;;;;5071619;28;20049;-63
2023/06/05 09:09:47;;;;;;;28.40;10.43;;;;;;;;;;5053054;28;20060;-63
2023/06/05 09:12:19;;;;;;;27.77;9.93;;;;;;;;;;5037097;28;20064;-64
2023/06/05 09:14:50;;;;;;;34.10;9.05;;;;;;;;;;5052789;28;20071;-63
2023/06/05 09:17:24;;;;;;;27.80;10.68;;;;;;;;;;5052340;28;20056;-62
2023/06/05 09:19:55;;;;;;;24.63;9.65;;;;;;;;;;5052883;28;20060;-63
2023/06/05 09:22:35;;;;;;;23.55;12.20;;;;;;;;;;5071294;28;20055;-63
2023/06/05 09:25:05;;;;;;;23.42;9.45;;;;;;;;;;5071241;28;20045;-63
2023/06/05 09:27:38;;;;;;;23.88;11.48;;;;;;;;;;5071168;28;20044;-64
2023/06/05 09:30:09;;;;;;;24.23;9.48;;;;;;;;;;5052839;28;20057;-63
2023/06/05 09:32:39;;;;;;;22.15;9.57;;;;;;;;;;5068691;28;20063;-63
2023/06/05 09:35:16;;;;;;;30.92;10.43;;;;;;;;;;5036199;28;20068;-63
2023/06/05 09:37:47;;;;;;;39.13;10.52;;;;;;;;;;5070937;28;20051;-63
2023/06/05 09:40:19;;;;;;;32.47;9.80;;;;;;;;;;4970709;28;20049;-63
2023/06/05 09:42:49;;;;;;;34.42;8.98;;;;;;;;;;5036073;28;20075;-62
2023/06/05 09:45:20;;;;;;;39.03;8.48;;;;;;;;;;5051939;28;20053;-63
2023/06/05 09:47:50;;;;;;;42.78;8.73;;;;;;;;;;5019271;28;20057;-64
2023/06/05 09:50:27;;;;;;;29.55;7.72;;;;;;;;;;5071512;28;20044;-63
2023/06/05 09:52:59;;;;;;;40.35;8.27;;;;;;;;;;5023127;28;20057;-63
2023/06/05 09:55:30;;;;;;;41.20;8.57;;;;;;;;;;5056246;28;20049;-63
2023/06/05 09:58:09;;;;;;;20.55;9.52;;;;;;;;;;5074554;28;20051;-63
2023/06/05 10:00:41;;;;;;;22.73;10.07;;;;;;;;;;5039248;28;20059;-63
2023/06/05 10:03:20;;;;;;;26.08;10.05;;;;;;;;;;5022611;28;20500;-63
2023/06/05 10:05:51;;;;;;;30.98;10.50;;;;;;;;;;5074311;28;20041;-63
2023/06/05 10:08:29;;;;;;;35.40;11.13;;;;;;;;;;5042083;28;20505;-63
2023/06/05 10:11:02;;;;;;;27.00;9.23;;;;;;;;;;5074175;28;20052;-63
2023/06/05 10:13:33;;;;;;;29.67;10.35;;;;;;;;;;5038646;28;20475;-63
2023/06/05 10:16:03;;;;;;;41.20;11.45;;;;;;;;;;5006526;28;20495;-62
2023/06/05 10:18:47;;;;;;;28.27;10.05;;;;;;;;;;5074083;28;20041;-62
2023/06/05 10:21:19;;;;;;;32.40;10.85;;;;;;;;;;5074099;28;20036;-62
2023/06/05 10:23:53;;;;;;;47.53;12.55;;;;;;;;;;5022256;28;20053;-62
2023/06/05 10:27:03;;;;;;;19.40;6.97;;;;;;;;;;5074107;28;20033;-62
2023/06/05 10:29:36;;;;;;;;;;;;;;;;;;5055352;28;20048;-62
2023/06/05 10:32:13;;;;;;;25.40;4.88;;;;;;;;;;5034273;28;19928;-62
2023/06/05 10:35:20;;;;;;;25.58;7.22;;;;;;;;;;5051595;28;20061;-62
2023/06/05 10:38:20;;;;;;;32.95;6.93;;;;;;;;;;4991835;28;20062;-62
2023/06/05 10:40:58;;;;;;;40.70;7.50;;;;;;;;;;4959782;28;20050;-62
2023/06/05 10:43:33;;;;;;;28.05;8.32;;;;;;;;;;4975008;28;20054;-63
2023/06/05 10:46:29;;;;;;;25.08;8.20;;;;;;;;;;4944410;28;20526;-62
2023/06/05 10:49:07;;;;;;;29.08;8.40;;;;;;;;;;4991636;28;20422;-62
2023/06/05 10:51:39;;;;;;;;;;;;;;;;;;4959915;28;20054;-62
2023/06/05 10:54:34;;;;;;;37.83;8.90;;;;;;;;;;4959885;28;19921;-62
2023/06/05 10:57:06;;;;;;;42.25;8.43;;;;;;;;;;4933570;29;20500;-63
2023/06/05 10:59:39;;;;;;;33.53;7.72;;;;;;;;;;4933604;29;20051;-63
2023/06/05 11:02:15;;;;;;;30.13;7.78;;;;;;;;;;4932624;29;20064;-63
2023/06/05 11:04:48;;;;;;;27.63;8.15;;;;;;;;;;4933615;29;20051;-63
2023/06/05 11:07:24;;;;;;;14.77;7.68;;;;;;;;;;4933676;29;20060;-63
2023/06/05 11:10:20;;;;;;;22.02;7.30;;;;;;;;;;4944541;29;20059;-62
2023/06/05 11:12:55;;;;;;;22.33;7.45;;;;;;;;;;4895241;29;20061;-63
2023/06/05 11:15:42;;;;;;;23.00;7.60;;;;;;;;;;4952057;28;20486;-62
2023/06/05 11:18:28;;;;;;;20.60;8.48;;;;;;;;;;4952623;29;20059;-62
2023/06/05 11:21:00;;;;;;;17.75;8.65;;;;;;;;;;4952390;29;20055;-63
2023/06/05 11:23:30;;;;;;;33.67;9.15;;;;;;;;;;4952346;28;20059;-62
2023/06/05 11:26:40;;;;;;;23.95;9.57;;;;;;;;;;4932949;29;20052;-64
2023/06/05 11:29:15;;;;;;;22.55;8.27;;;;;;;;;;4933239;29;20063;-63
2023/06/05 11:31:46;;;;;;;31.17;9.63;;;;;;;;;;4933121;29;20063;-62
2023/06/05 11:34:16;;;;;;;18.10;9.95;;;;;;;;;;4907082;29;20551;-63
2023/06/05 11:36:47;;;;;;;16.70;7.90;;;;;;;;;;4902101;29;20424;-63
2023/06/05 11:39:19;;;;;;;22.77;10.70;;;;;;;;;;4932941;29;20056;-63
2023/06/05 11:41:51;;;;;;;26.17;11.70;;;;;;;;;;4948835;29;21171;-62
2023/06/05 11:44:39;;;;;;;26.52;10.35;;;;;;;;;;4932787;29;20067;-63
2023/06/05 11:47:26;;;;;;;20.75;9.18;;;;;;;;;;4917193;29;20051;-62
2023/06/05 11:50:13;;;;;;;13.73;5.70;;;;;;;;;;4976537;28;20413;-62
2023/06/05 11:52:44;;;;;;;20.20;8.35;;;;;;;;;;5010079;28;20453;-62
2023/06/05 11:55:32;;;;;;;21.10;7.68;;;;;;;;;;4993832;28;20057;-63
2023/06/05 11:58:03;;;;;;;34.47;9.35;;;;;;;;;;4970920;28;20058;-63
2023/06/05 12:00:33;;;;;;;25.27;10.18;;;;;;;;;;4971022;28;20055;-63
2023/06/05 12:03:03;;;;;;;28.50;8.50;;;;;;;;;;4975705;28;20418;-62
2023/06/05 12:05:36;;;;;;;30.40;9.75;;;;;;;;;;4990600;28;20061;-63
2023/06/05 12:08:33;;;;;;;13.20;5.38;;;;;;;;;;4957938;28;20612;-63
2023/06/05 12:11:04;;;;;;;26.70;9.38;;;;;;;;;;4947967;29;20067;-62
2023/06/05 12:13:51;;;;;;;18.52;7.50;;;;;;;;;;4947996;28;20056;-63
2023/06/05 12:16:45;;;;;;;18.73;9.30;;;;;;;;;;4932180;29;20066;-62
2023/06/05 12:19:18;;;;;;;20.15;8.80;;;;;;;;;;4951514;29;20070;-63
2023/06/05 12:21:54;;;;;;;18.75;8.65;;;;;;;;;;4951441;29;20059;-63
2023/06/05 12:24:26;;;;;;;21.77;8.48;;;;;;;;;;4955159;28;20522;-62
2023/06/05 12:27:07;;;;;;;22.23;7.78;;;;;;;;;;4966874;28;20055;-62
2023/06/05 12:29:39;;;;;;;21.70;8.38;;;;;;;;;;4983314;28;20082;-62
2023/06/05 12:32:25;;;;;;;18.80;8.60;;;;;;;;;;4919559;29;20055;-63
2023/06/05 12:34:56;;;;;;;19.83;8.60;;;;;;;;;;4923164;28;20058;-63
2023/06/05 12:37:38;;;;;;;19.40;9.32;;;;;;;;;;4968934;28;20093;-63
2023/06/05 12:40:11;;;;;;;22.08;9.30;;;;;;;;;;4985826;28;20054;-63
2023/06/05 12:42:49;;;;;;;19.65;8.82;;;;;;;;;;4970327;28;20526;-63
2023/06/05 12:45:22;;;;;;;18.45;8.32;;;;;;;;;;4970524;28;20062;-62
2023/06/05 12:47:52;;;;;;;21.67;9.45;;;;;;;;;;4957161;28;20058;-63
2023/06/05 12:50:22;;;;;;;21.02;9.75;;;;;;;;;;4941584;28;20054;-63
2023/06/05 12:52:52;;;;;;;22.48;9.18;;;;;;;;;;4989501;28;20054;-64
2023/06/05 12:55:22;;;;;;;19.60;9.32;;;;;;;;;;5029884;28;20053;-63
2023/06/05 12:57:54;;;;;;;23.60;10.60;;;;;;;;;;4984786;28;20052;-63
2023/06/05 13:00:24;;;;;;;22.48;10.38;;;;;;;;;;5048849;28;20504;-63
2023/06/05 13:02:55;;;;;;;22.38;10.57;;;;;;;;;;5012579;28;20092;-63
2023/06/05 13:05:25;;;;;;;25.83;11.13;;;;;;;;;;5028723;28;20465;-63
2023/06/05 13:07:56;;;;;;;23.13;10.07;;;;;;;;;;5028768;28;20045;-63
2023/06/05 13:10:26;;;;;;;21.08;10.35;;;;;;;;;;5028706;28;20057;-63
2023/06/05 13:12:56;;;;;;;21.55;10.55;;;;;;;;;;4995752;28;20058;-63
2023/06/05 13:15:26;;;;;;;22.50;10.95;;;;;;;;;;5028737;28;20092;-63
2023/06/05 13:17:56;;;;;;;20.10;10.07;;;;;;;;;;5028710;28;20062;-63
2023/06/05 13:20:27;;;;;;;21.35;10.93;;;;;;;;;;5028597;28;20069;-63
2023/06/05 13:22:58;;;;;;;24.58;12.55;;;;;;;;;;5028684;28;20053;-62
2023/06/05 13:25:28;;;;;;;23.60;11.27;;;;;;;;;;5029346;28;20184;-65
2023/06/05 13:27:58;;;;;;;34.30;14.30;;;;;;;;;;5000113;28;20760;-63
2023/06/05 13:30:28;;;;;;;35.38;16.00;;;;;;;;;;4999642;28;20100;-63
2023/06/05 13:32:58;;;;;;;27.98;11.68;;;;;;;;;;5013466;28;20057;-63
2023/06/05 13:35:28;;;;;;;43.45;18.70;;;;;;;;;;5039129;28;20052;-63
2023/06/05 13:37:58;;;;;;;26.70;13.27;;;;;;;;;;5039074;28;20060;-63
2023/06/05 13:40:28;;;;;;;18.20;9.57;;;;;;;;;;4970950;28;20053;-63
2023/06/05 13:42:59;;;;;;;37.30;19.90;;;;;;;;;;5002987;28;20053;-63
2023/06/05 13:45:29;;;;;;;28.77;14.23;;;;;;;;;;5000084;28;20061;-64
2023/06/05 13:47:59;;;;;;;66.68;35.95;;;;;;;;;;5016568;28;20068;-63
2023/06/05 13:50:30;;;;;;;26.85;10.80;;;;;;;;;;5034913;28;20053;-63
2023/06/05 13:53:00;;;;;;;24.58;13.25;;;;;;;;;;5034853;28;20045;-63
2023/06/05 13:55:30;;;;;;;19.85;10.23;;;;;;;;;;5034661;28;20053;-64
2023/06/05 13:58:01;;;;;;;20.95;10.75;;;;;;;;;;5034755;28;20041;-63
2023/06/05 14:00:32;;;;;;;19.40;9.63;;;;;;;;;;5034640;28;20057;-63
2023/06/05 14:03:02;;;;;;;16.17;9.18;;;;;;;;;;4999592;28;20056;-63
2023/06/05 14:05:32;;;;;;;18.58;9.57;;;;;;;;;;5034469;28;20046;-63
2023/06/05 14:08:03;;;;;;;18.77;8.07;;;;;;;;;;5016156;28;20057;-63
2023/06/05 14:10:35;;;;;;;14.88;7.90;;;;;;;;;;5015698;28;20049;-63
2023/06/05 14:13:06;;;;;;;14.02;8.00;;;;;;;;;;5032655;28;20053;-62
2023/06/05 14:15:36;;;;;;;14.80;7.60;;;;;;;;;;5032313;28;20061;-64
2023/06/05 14:18:09;;;;;;;15.07;6.78;;;;;;;;;;5034165;28;20049;-63
2023/06/05 14:20:39;;;;;;;11.48;6.45;;;;;;;;;;5015439;28;20045;-63
2023/06/05 14:23:10;;;;;;;11.70;6.43;;;;;;;;;;5015729;28;20073;-63
2023/06/05 14:25:40;;;;;;;13.65;6.90;;;;;;;;;;5034312;28;20050;-63
2023/06/05 14:28:11;;;;;;;9.95;5.32;;;;;;;;;;5015642;28;20053;-63
2023/06/05 14:30:41;;;;;;;17.83;7.40;;;;;;;;;;4983721;28;20069;-63
2023/06/05 14:33:11;;;;;;;15.85;7.35;;;;;;;;;;5015409;28;20061;-63
2023/06/05 14:35:42;;;;;;;16.85;8.82;;;;;;;;;;5034048;28;20049;-63
2023/06/05 14:38:12;;;;;;;18.30;8.02;;;;;;;;;;5015348;28;20072;-64
2023/06/05 14:40:43;;;;;;;18.30;7.80;;;;;;;;;;5072334;28;20064;-62
2023/06/05 14:43:13;;;;;;;17.45;8.07;;;;;;;;;;4989968;28;20052;-63
2023/06/05 14:45:43;;;;;;;21.30;8.05;;;;;;;;;;5054809;28;20531;-62
2023/06/05 14:48:14;;;;;;;19.48;7.82;;;;;;;;;;5073781;28;20040;-63
2023/06/05 14:50:46;;;;;;;20.67;7.10;;;;;;;;;;5038195;28;20412;-63
2023/06/05 14:53:16;;;;;;;;;;;;;;;;;;5021780;28;20053;-63
2023/06/05 14:55:45;;;;;;;15.02;7.25;;;;;;;;;;5038927;28;19921;-64
2023/06/05 14:58:16;;;;;;;17.25;7.38;;;;;;;;;;5073436;28;20091;-63
2023/06/05 15:00:48;;;;;;;20.48;7.90;;;;;;;;;;5073321;28;20488;-63
2023/06/05 15:03:24;;;;;;;15.98;6.45;;;;;;;;;;5073311;28;20436;-62